sensor_id;sensor_type;location;lat;lon;timestamp;P1;durP1;ratioP1;P2;durP2;ratioP2
72785;SDS011;60902;53.876;10.674;2024-03-07T00:00:08;12.45;;;6.68;;
72785;SDS011;60902;53.876;10.674;2024-03-07T00:00:24;12.63;;;6.82;;
72785;SDS011;60902;53.876;10.674;2024-03-07T00:00:35;11.60;;;6.82;;
72785;SDS011;60902;53.876;10.674;2024-03-07T00:00:47;11.60;;;7.00;;
72785;SDS011;60902;53.876;10.674;2024-03-07T00:00:58;11.95;;;7.25;;
72785;SDS011;60902;53.876;10.674;2024-03-07T00:01:10;12.27;;;7.60;;
72785;SDS011;60902;53.876;10.674;2024-03-07T00:01:21;13.02;;;7.45;;
72785;SDS011;60902;53.876;10.674;2024-03-07T00:01:32;13.30;;;7.25;;
72785;SDS011;60902;53.876;10.674;2024-03-07T00:01:42;12.27;;;6.68;;
72785;SDS011;60902;53.876;10.674;2024-03-07T00:01:53;12.47;;;6.87;;
72785;SDS011;60902;53.876;10.674;2024-03-07T00:02:05;11.98;;;6.90;;
72785;SDS011;60902;53.876;10.674;2024-03-07T00:02:16;12.25;;;7.40;;
72785;SDS011;60902;53.876;10.674;2024-03-07T00:02:27;12.80;;;7.30;;
72785;SDS011;60902;53.876;10.674;2024-03-07T00:02:39;13.25;;;7.72;;
72785;SDS011;60902;53.876;10.674;2024-03-07T00:02:51;12.27;;;7.72;;
72785;SDS011;60902;53.876;10.674;2024-03-07T00:03:02;11.35;;;7.68;;
72785;SDS011;60902;53.876;10.674;2024-03-07T00:03:13;11.90;;;7.43;;
72785;SDS011;60902;53.876;10.674;2024-03-07T00:03:24;11.65;;;6.88;;
72785;SDS011;60902;53.876;10.674;2024-03-07T00:03:35;12.07;;;7.00;;
72785;SDS011;60902;53.876;10.674;2024-03-07T00:03:46;11.60;;;7.18;;
72785;SDS011;60902;53.876;10.674;2024-03-07T00:03:57;12.73;;;7.95;;
72785;SDS011;60902;53.876;10.674;2024-03-07T00:04:08;13.48;;;7.95;;
72785;SDS011;60902;53.876;10.674;2024-03-07T00:04:20;13.30;;;7.72;;
72785;SDS011;60902;53.876;10.674;2024-03-07T00:04:31;13.48;;;7.47;;
72785;SDS011;60902;53.876;10.674;2024-03-07T00:04:42;13.93;;;7.80;;
72785;SDS011;60902;53.876;10.674;2024-03-07T00:04:53;12.90;;;7.33;;
72785;SDS011;60902;53.876;10.674;2024-03-07T00:05:04;11.80;;;7.00;;
72785;SDS011;60902;53.876;10.674;2024-03-07T00:05:15;11.75;;;6.72;;
72785;SDS011;60902;53.876;10.674;2024-03-07T00:05:27;12.23;;;7.05;;
72785;SDS011;60902;53.876;10.674;2024-03-07T00:05:38;11.60;;;6.95;;
72785;SDS011;60902;53.876;10.674;2024-03-07T00:05:49;11.43;;;6.68;;
72785;SDS011;60902;53.876;10.674;2024-03-07T00:06:00;11.93;;;6.50;;
72785;SDS011;60902;53.876;10.674;2024-03-07T00:06:13;12.70;;;6.90;;
72785;SDS011;60902;53.876;10.674;2024-03-07T00:06:24;13.27;;;7.45;;
72785;SDS011;60902;53.876;10.674;2024-03-07T00:06:35;12.70;;;7.47;;
72785;SDS011;60902;53.876;10.674;2024-03-07T00:06:46;12.30;;;7.32;;
72785;SDS011;60902;53.876;10.674;2024-03-07T00:06:58;12.65;;;7.15;;
72785;SDS011;60902;53.876;10.674;2024-03-07T00:07:09;13.50;;;7.30;;
72785;SDS011;60902;53.876;10.674;2024-03-07T00:07:20;14.00;;;7.38;;
72785;SDS011;60902;53.876;10.674;2024-03-07T00:07:31;13.37;;;7.27;;
72785;SDS011;60902;53.876;10.674;2024-03-07T00:07:42;12.85;;;7.28;;
72785;SDS011;60902;53.876;10.674;2024-03-07T00:07:53;13.27;;;7.45;;
72785;SDS011;60902;53.876;10.674;2024-03-07T00:08:04;13.20;;;7.47;;
72785;SDS011;60902;53.876;10.674;2024-03-07T00:08:17;12.55;;;7.07;;
72785;SDS011;60902;53.876;10.674;2024-03-07T00:08:28;13.27;;;6.95;;
72785;SDS011;60902;53.876;10.674;2024-03-07T00:08:40;14.10;;;7.38;;
72785;SDS011;60902;53.876;10.674;2024-03-07T00:08:51;14.48;;;7.38;;
72785;SDS011;60902;53.876;10.674;2024-03-07T00:09:02;13.15;;;7.30;;
72785;SDS011;60902;53.876;10.674;2024-03-07T00:09:13;11.98;;;7.10;;
72785;SDS011;60902;53.876;10.674;2024-03-07T00:09:25;12.30;;;7.18;;
72785;SDS011;60902;53.876;10.674;2024-03-07T00:09:36;12.60;;;7.30;;
72785;SDS011;60902;53.876;10.674;2024-03-07T00:09:47;12.00;;;7.20;;
72785;SDS011;60902;53.876;10.674;2024-03-07T00:09:58;11.65;;;7.28;;
72785;SDS011;60902;53.876;10.674;2024-03-07T00:10:09;11.57;;;6.70;;
72785;SDS011;60902;53.876;10.674;2024-03-07T00:10:21;11.20;;;6.68;;
72785;SDS011;60902;53.876;10.674;2024-03-07T00:10:33;10.80;;;6.63;;
72785;SDS011;60902;53.876;10.674;2024-03-07T00:10:46;11.13;;;7.13;;
72785;SDS011;60902;53.876;10.674;2024-03-07T00:10:57;11.70;;;7.25;;
72785;SDS011;60902;53.876;10.674;2024-03-07T00:11:08;12.15;;;7.03;;
72785;SDS011;60902;53.876;10.674;2024-03-07T00:11:19;11.90;;;6.75;;
72785;SDS011;60902;53.876;10.674;2024-03-07T00:11:30;12.27;;;6.87;;
72785;SDS011;60902;53.876;10.674;2024-03-07T00:11:41;14.43;;;7.45;;
72785;SDS011;60902;53.876;10.674;2024-03-07T00:11:52;14.80;;;7.60;;
72785;SDS011;60902;53.876;10.674;2024-03-07T00:12:04;14.60;;;7.43;;
72785;SDS011;60902;53.876;10.674;2024-03-07T00:12:17;12.73;;;7.07;;
72785;SDS011;60902;53.876;10.674;2024-03-07T00:12:28;12.77;;;7.18;;
72785;SDS011;60902;53.876;10.674;2024-03-07T00:12:40;13.25;;;7.45;;
72785;SDS011;60902;53.876;10.674;2024-03-07T00:12:51;12.50;;;7.15;;
72785;SDS011;60902;53.876;10.674;2024-03-07T00:13:02;12.80;;;7.20;;
72785;SDS011;60902;53.876;10.674;2024-03-07T00:13:13;11.70;;;6.90;;
72785;SDS011;60902;53.876;10.674;2024-03-07T00:13:24;11.13;;;6.60;;
72785;SDS011;60902;53.876;10.674;2024-03-07T00:13:35;11.20;;;6.57;;
72785;SDS011;60902;53.876;10.674;2024-03-07T00:13:46;12.10;;;7.13;;
72785;SDS011;60902;53.876;10.674;2024-03-07T00:13:57;12.17;;;7.17;;
72785;SDS011;60902;53.876;10.674;2024-03-07T00:14:08;11.90;;;6.90;;
72785;SDS011;60902;53.876;10.674;2024-03-07T00:14:19;12.27;;;6.93;;
72785;SDS011;60902;53.876;10.674;2024-03-07T00:14:31;12.43;;;7.47;;
72785;SDS011;60902;53.876;10.674;2024-03-07T00:14:45;13.07;;;7.50;;
72785;SDS011;60902;53.876;10.674;2024-03-07T00:14:56;13.48;;;7.47;;
72785;SDS011;60902;53.876;10.674;2024-03-07T00:15:07;12.98;;;7.32;;
72785;SDS011;60902;53.876;10.674;2024-03-07T00:15:19;12.30;;;7.03;;
72785;SDS011;60902;53.876;10.674;2024-03-07T00:15:31;11.88;;;7.07;;
72785;SDS011;60902;53.876;10.674;2024-03-07T00:15:42;12.27;;;7.27;;
72785;SDS011;60902;53.876;10.674;2024-03-07T00:15:53;13.15;;;7.53;;
72785;SDS011;60902;53.876;10.674;2024-03-07T00:16:04;13.00;;;7.40;;
72785;SDS011;60902;53.876;10.674;2024-03-07T00:16:15;13.07;;;7.50;;
72785;SDS011;60902;53.876;10.674;2024-03-07T00:16:26;13.48;;;7.60;;
72785;SDS011;60902;53.876;10.674;2024-03-07T00:16:38;12.73;;;7.40;;
72785;SDS011;60902;53.876;10.674;2024-03-07T00:16:50;12.23;;;7.07;;
72785;SDS011;60902;53.876;10.674;2024-03-07T00:17:01;11.75;;;7.00;;
72785;SDS011;60902;53.876;10.674;2024-03-07T00:17:13;11.93;;;6.93;;
72785;SDS011;60902;53.876;10.674;2024-03-07T00:17:24;12.02;;;6.93;;
72785;SDS011;60902;53.876;10.674;2024-03-07T00:17:35;11.90;;;6.63;;
72785;SDS011;60902;53.876;10.674;2024-03-07T00:17:46;11.27;;;6.72;;
72785;SDS011;60902;53.876;10.674;2024-03-07T00:17:57;11.60;;;6.53;;
72785;SDS011;60902;53.876;10.674;2024-03-07T00:18:08;11.52;;;6.38;;
72785;SDS011;60902;53.876;10.674;2024-03-07T00:18:21;11.73;;;6.47;;
72785;SDS011;60902;53.876;10.674;2024-03-07T00:18:32;11.75;;;6.75;;
72785;SDS011;60902;53.876;10.674;2024-03-07T00:18:44;13.30;;;6.95;;
72785;SDS011;60902;53.876;10.674;2024-03-07T00:18:55;13.05;;;6.88;;
72785;SDS011;60902;53.876;10.674;2024-03-07T00:19:06;12.63;;;6.78;;
72785;SDS011;60902;53.876;10.674;2024-03-07T00:19:17;11.27;;;6.80;;
72785;SDS011;60902;53.876;10.674;2024-03-07T00:19:28;10.98;;;6.57;;
72785;SDS011;60902;53.876;10.674;2024-03-07T00:19:39;10.63;;;6.50;;
72785;SDS011;60902;53.876;10.674;2024-03-07T00:19:50;11.77;;;6.73;;
72785;SDS011;60902;53.876;10.674;2024-03-07T00:20:02;12.35;;;6.95;;
72785;SDS011;60902;53.876;10.674;2024-03-07T00:20:14;12.20;;;6.78;;
72785;SDS011;60902;53.876;10.674;2024-03-07T00:20:29;12.45;;;7.10;;
72785;SDS011;60902;53.876;10.674;2024-03-07T00:20:40;12.73;;;7.40;;
72785;SDS011;60902;53.876;10.674;2024-03-07T00:20:52;12.02;;;7.10;;
72785;SDS011;60902;53.876;10.674;2024-03-07T00:21:04;11.88;;;7.20;;
72785;SDS011;60902;53.876;10.674;2024-03-07T00:21:17;11.55;;;7.00;;
72785;SDS011;60902;53.876;10.674;2024-03-07T00:21:28;11.90;;;6.85;;
72785;SDS011;60902;53.876;10.674;2024-03-07T00:21:39;12.02;;;7.13;;
72785;SDS011;60902;53.876;10.674;2024-03-07T00:21:50;11.85;;;7.20;;
72785;SDS011;60902;53.876;10.674;2024-03-07T00:22:01;13.18;;;7.50;;
72785;SDS011;60902;53.876;10.674;2024-03-07T00:22:12;13.45;;;7.38;;
72785;SDS011;60902;53.876;10.674;2024-03-07T00:22:23;12.60;;;7.30;;
72785;SDS011;60902;53.876;10.674;2024-03-07T00:22:37;11.60;;;6.93;;
72785;SDS011;60902;53.876;10.674;2024-03-07T00:22:48;13.35;;;7.40;;
72785;SDS011;60902;53.876;10.674;2024-03-07T00:22:59;13.23;;;7.40;;
72785;SDS011;60902;53.876;10.674;2024-03-07T00:23:10;13.23;;;7.32;;
72785;SDS011;60902;53.876;10.674;2024-03-07T00:23:21;11.80;;;6.72;;
72785;SDS011;60902;53.876;10.674;2024-03-07T00:23:32;11.75;;;6.85;;
72785;SDS011;60902;53.876;10.674;2024-03-07T00:23:43;12.25;;;6.97;;
72785;SDS011;60902;53.876;10.674;2024-03-07T00:23:54;12.43;;;7.07;;
72785;SDS011;60902;53.876;10.674;2024-03-07T00:24:05;12.05;;;6.80;;
72785;SDS011;60902;53.876;10.674;2024-03-07T00:24:16;11.50;;;6.70;;
72785;SDS011;60902;53.876;10.674;2024-03-07T00:24:29;11.25;;;6.80;;
72785;SDS011;60902;53.876;10.674;2024-03-07T00:24:39;11.05;;;6.72;;
72785;SDS011;60902;53.876;10.674;2024-03-07T00:24:50;12.10;;;7.00;;
72785;SDS011;60902;53.876;10.674;2024-03-07T00:25:01;11.77;;;6.82;;
72785;SDS011;60902;53.876;10.674;2024-03-07T00:25:15;12.10;;;6.78;;
72785;SDS011;60902;53.876;10.674;2024-03-07T00:25:29;11.27;;;6.50;;
72785;SDS011;60902;53.876;10.674;2024-03-07T00:25:41;11.13;;;6.57;;
72785;SDS011;60902;53.876;10.674;2024-03-07T00:25:52;11.38;;;6.75;;
72785;SDS011;60902;53.876;10.674;2024-03-07T00:26:03;12.52;;;7.05;;
72785;SDS011;60902;53.876;10.674;2024-03-07T00:26:15;13.30;;;7.43;;
72785;SDS011;60902;53.876;10.674;2024-03-07T00:26:26;13.18;;;7.32;;
72785;SDS011;60902;53.876;10.674;2024-03-07T00:26:37;12.93;;;7.17;;
72785;SDS011;60902;53.876;10.674;2024-03-07T00:26:48;12.27;;;6.78;;
72785;SDS011;60902;53.876;10.674;2024-03-07T00:27:01;13.80;;;7.57;;
72785;SDS011;60902;53.876;10.674;2024-03-07T00:27:13;14.32;;;7.65;;
72785;SDS011;60902;53.876;10.674;2024-03-07T00:27:24;13.63;;;7.28;;
72785;SDS011;60902;53.876;10.674;2024-03-07T00:27:36;12.95;;;7.18;;
72785;SDS011;60902;53.876;10.674;2024-03-07T00:27:48;12.52;;;7.25;;
72785;SDS011;60902;53.876;10.674;2024-03-07T00:27:59;12.13;;;7.20;;
72785;SDS011;60902;53.876;10.674;2024-03-07T00:28:13;13.13;;;7.47;;
72785;SDS011;60902;53.876;10.674;2024-03-07T00:28:27;12.50;;;7.18;;
72785;SDS011;60902;53.876;10.674;2024-03-07T00:28:42;10.80;;;6.40;;
72785;SDS011;60902;53.876;10.674;2024-03-07T00:28:53;10.27;;;6.40;;
72785;SDS011;60902;53.876;10.674;2024-03-07T00:29:04;10.57;;;6.45;;
72785;SDS011;60902;53.876;10.674;2024-03-07T00:29:16;11.30;;;6.70;;
72785;SDS011;60902;53.876;10.674;2024-03-07T00:29:28;11.60;;;6.75;;
72785;SDS011;60902;53.876;10.674;2024-03-07T00:29:39;12.15;;;6.90;;
72785;SDS011;60902;53.876;10.674;2024-03-07T00:29:50;12.20;;;6.82;;
72785;SDS011;60902;53.876;10.674;2024-03-07T00:30:03;12.20;;;6.63;;
72785;SDS011;60902;53.876;10.674;2024-03-07T00:30:18;11.75;;;7.10;;
72785;SDS011;60902;53.876;10.674;2024-03-07T00:30:30;10.68;;;6.57;;
72785;SDS011;60902;53.876;10.674;2024-03-07T00:30:41;10.45;;;6.25;;
72785;SDS011;60902;53.876;10.674;2024-03-07T00:30:53;10.48;;;6.22;;
72785;SDS011;60902;53.876;10.674;2024-03-07T00:31:05;10.82;;;6.45;;
72785;SDS011;60902;53.876;10.674;2024-03-07T00:31:17;10.82;;;6.32;;
72785;SDS011;60902;53.876;10.674;2024-03-07T00:31:28;10.93;;;6.35;;
72785;SDS011;60902;53.876;10.674;2024-03-07T00:31:40;11.93;;;6.80;;
72785;SDS011;60902;53.876;10.674;2024-03-07T00:31:52;12.75;;;6.93;;
72785;SDS011;60902;53.876;10.674;2024-03-07T00:32:03;13.00;;;7.00;;
72785;SDS011;60902;53.876;10.674;2024-03-07T00:32:15;12.25;;;6.90;;
72785;SDS011;60902;53.876;10.674;2024-03-07T00:32:28;11.25;;;6.68;;
72785;SDS011;60902;53.876;10.674;2024-03-07T00:32:40;11.25;;;6.80;;
72785;SDS011;60902;53.876;10.674;2024-03-07T00:32:50;11.33;;;6.23;;
72785;SDS011;60902;53.876;10.674;2024-03-07T00:33:01;11.18;;;6.32;;
72785;SDS011;60902;53.876;10.674;2024-03-07T00:33:12;11.45;;;6.75;;
72785;SDS011;60902;53.876;10.674;2024-03-07T00:33:23;12.60;;;7.15;;
72785;SDS011;60902;53.876;10.674;2024-03-07T00:33:35;13.30;;;7.30;;
72785;SDS011;60902;53.876;10.674;2024-03-07T00:33:46;12.73;;;7.00;;
72785;SDS011;60902;53.876;10.674;2024-03-07T00:33:57;11.57;;;6.82;;
72785;SDS011;60902;53.876;10.674;2024-03-07T00:34:08;12.00;;;7.55;;
72785;SDS011;60902;53.876;10.674;2024-03-07T00:34:20;12.98;;;7.50;;
72785;SDS011;60902;53.876;10.674;2024-03-07T00:34:33;12.70;;;7.22;;
72785;SDS011;60902;53.876;10.674;2024-03-07T00:34:44;11.83;;;6.60;;
72785;SDS011;60902;53.876;10.674;2024-03-07T00:34:55;10.85;;;6.50;;
72785;SDS011;60902;53.876;10.674;2024-03-07T00:35:07;11.02;;;6.57;;
72785;SDS011;60902;53.876;10.674;2024-03-07T00:35:18;10.80;;;6.43;;
72785;SDS011;60902;53.876;10.674;2024-03-07T00:35:30;12.27;;;7.22;;
72785;SDS011;60902;53.876;10.674;2024-03-07T00:35:41;12.85;;;7.35;;
72785;SDS011;60902;53.876;10.674;2024-03-07T00:35:54;12.20;;;7.03;;
72785;SDS011;60902;53.876;10.674;2024-03-07T00:36:05;11.80;;;6.97;;
72785;SDS011;60902;53.876;10.674;2024-03-07T00:36:18;11.68;;;6.85;;
72785;SDS011;60902;53.876;10.674;2024-03-07T00:36:31;12.10;;;6.90;;
72785;SDS011;60902;53.876;10.674;2024-03-07T00:36:43;12.60;;;7.03;;
72785;SDS011;60902;53.876;10.674;2024-03-07T00:36:54;12.43;;;7.17;;
72785;SDS011;60902;53.876;10.674;2024-03-07T00:37:06;12.30;;;7.25;;
72785;SDS011;60902;53.876;10.674;2024-03-07T00:37:17;12.00;;;7.00;;
72785;SDS011;60902;53.876;10.674;2024-03-07T00:37:28;12.70;;;6.90;;
72785;SDS011;60902;53.876;10.674;2024-03-07T00:37:40;12.52;;;6.97;;
72785;SDS011;60902;53.876;10.674;2024-03-07T00:37:51;11.77;;;6.70;;
72785;SDS011;60902;53.876;10.674;2024-03-07T00:38:02;11.75;;;6.63;;
72785;SDS011;60902;53.876;10.674;2024-03-07T00:38:14;12.40;;;7.15;;
72785;SDS011;60902;53.876;10.674;2024-03-07T00:38:25;12.38;;;7.18;;
72785;SDS011;60902;53.876;10.674;2024-03-07T00:38:36;12.50;;;7.10;;
72785;SDS011;60902;53.876;10.674;2024-03-07T00:38:48;12.95;;;6.93;;
72785;SDS011;60902;53.876;10.674;2024-03-07T00:38:59;13.02;;;7.18;;
72785;SDS011;60902;53.876;10.674;2024-03-07T00:39:10;12.45;;;6.90;;
72785;SDS011;60902;53.876;10.674;2024-03-07T00:39:21;12.38;;;6.95;;
72785;SDS011;60902;53.876;10.674;2024-03-07T00:39:34;12.45;;;7.32;;
72785;SDS011;60902;53.876;10.674;2024-03-07T00:39:45;12.88;;;7.53;;
72785;SDS011;60902;53.876;10.674;2024-03-07T00:39:55;12.60;;;7.17;;
72785;SDS011;60902;53.876;10.674;2024-03-07T00:40:07;11.73;;;6.88;;
72785;SDS011;60902;53.876;10.674;2024-03-07T00:40:19;11.60;;;7.05;;
72785;SDS011;60902;53.876;10.674;2024-03-07T00:40:32;12.38;;;7.30;;
72785;SDS011;60902;53.876;10.674;2024-03-07T00:40:43;12.68;;;7.43;;
72785;SDS011;60902;53.876;10.674;2024-03-07T00:40:54;12.60;;;7.55;;
72785;SDS011;60902;53.876;10.674;2024-03-07T00:41:05;12.23;;;7.33;;
72785;SDS011;60902;53.876;10.674;2024-03-07T00:41:16;12.00;;;7.13;;
72785;SDS011;60902;53.876;10.674;2024-03-07T00:41:27;11.55;;;6.70;;
72785;SDS011;60902;53.876;10.674;2024-03-07T00:41:38;11.03;;;6.83;;
72785;SDS011;60902;53.876;10.674;2024-03-07T00:41:49;11.57;;;7.00;;
72785;SDS011;60902;53.876;10.674;2024-03-07T00:42:00;12.15;;;6.97;;
72785;SDS011;60902;53.876;10.674;2024-03-07T00:42:14;12.60;;;6.88;;
72785;SDS011;60902;53.876;10.674;2024-03-07T00:42:24;12.35;;;6.75;;
72785;SDS011;60902;53.876;10.674;2024-03-07T00:42:37;13.05;;;6.78;;
72785;SDS011;60902;53.876;10.674;2024-03-07T00:42:49;13.18;;;6.97;;
72785;SDS011;60902;53.876;10.674;2024-03-07T00:43:00;12.82;;;6.95;;
72785;SDS011;60902;53.876;10.674;2024-03-07T00:43:11;12.75;;;6.78;;
72785;SDS011;60902;53.876;10.674;2024-03-07T00:43:23;11.80;;;6.60;;
72785;SDS011;60902;53.876;10.674;2024-03-07T00:43:35;11.38;;;6.68;;
72785;SDS011;60902;53.876;10.674;2024-03-07T00:43:46;11.35;;;6.75;;
72785;SDS011;60902;53.876;10.674;2024-03-07T00:43:57;12.27;;;6.90;;
72785;SDS011;60902;53.876;10.674;2024-03-07T00:44:08;13.65;;;7.20;;
72785;SDS011;60902;53.876;10.674;2024-03-07T00:44:19;13.50;;;7.17;;
72785;SDS011;60902;53.876;10.674;2024-03-07T00:44:31;13.38;;;7.03;;
72785;SDS011;60902;53.876;10.674;2024-03-07T00:44:42;11.93;;;6.90;;
72785;SDS011;60902;53.876;10.674;2024-03-07T00:44:53;12.18;;;7.00;;
72785;SDS011;60902;53.876;10.674;2024-03-07T00:45:04;11.00;;;6.68;;
72785;SDS011;60902;53.876;10.674;2024-03-07T00:45:16;11.30;;;6.45;;
72785;SDS011;60902;53.876;10.674;2024-03-07T00:45:27;11.40;;;6.40;;
72785;SDS011;60902;53.876;10.674;2024-03-07T00:45:38;12.68;;;6.60;;
72785;SDS011;60902;53.876;10.674;2024-03-07T00:45:49;13.40;;;6.75;;
72785;SDS011;60902;53.876;10.674;2024-03-07T00:46:00;13.73;;;7.03;;
72785;SDS011;60902;53.876;10.674;2024-03-07T00:46:12;12.93;;;7.10;;
72785;SDS011;60902;53.876;10.674;2024-03-07T00:46:23;11.95;;;7.00;;
72785;SDS011;60902;53.876;10.674;2024-03-07T00:46:34;12.10;;;6.73;;
72785;SDS011;60902;53.876;10.674;2024-03-07T00:46:45;11.60;;;6.50;;
72785;SDS011;60902;53.876;10.674;2024-03-07T00:46:56;12.07;;;6.47;;
72785;SDS011;60902;53.876;10.674;2024-03-07T00:47:07;11.98;;;6.53;;
72785;SDS011;60902;53.876;10.674;2024-03-07T00:47:17;12.10;;;6.75;;
72785;SDS011;60902;53.876;10.674;2024-03-07T00:47:28;12.00;;;6.50;;
72785;SDS011;60902;53.876;10.674;2024-03-07T00:47:39;11.25;;;6.07;;
72785;SDS011;60902;53.876;10.674;2024-03-07T00:47:50;11.20;;;6.22;;
72785;SDS011;60902;53.876;10.674;2024-03-07T00:48:02;11.48;;;6.22;;
72785;SDS011;60902;53.876;10.674;2024-03-07T00:48:14;11.52;;;6.40;;
72785;SDS011;60902;53.876;10.674;2024-03-07T00:48:25;11.38;;;6.18;;
72785;SDS011;60902;53.876;10.674;2024-03-07T00:48:35;11.05;;;6.60;;
72785;SDS011;60902;53.876;10.674;2024-03-07T00:48:47;11.57;;;6.43;;
72785;SDS011;60902;53.876;10.674;2024-03-07T00:48:58;12.23;;;6.65;;
72785;SDS011;60902;53.876;10.674;2024-03-07T00:49:10;12.00;;;6.82;;
72785;SDS011;60902;53.876;10.674;2024-03-07T00:49:22;11.65;;;6.97;;
72785;SDS011;60902;53.876;10.674;2024-03-07T00:49:33;11.27;;;6.68;;
72785;SDS011;60902;53.876;10.674;2024-03-07T00:49:44;11.98;;;6.70;;
72785;SDS011;60902;53.876;10.674;2024-03-07T00:49:56;11.88;;;6.70;;
72785;SDS011;60902;53.876;10.674;2024-03-07T00:50:08;12.25;;;6.70;;
72785;SDS011;60902;53.876;10.674;2024-03-07T00:50:20;11.32;;;6.50;;
72785;SDS011;60902;53.876;10.674;2024-03-07T00:50:31;11.48;;;6.72;;
72785;SDS011;60902;53.876;10.674;2024-03-07T00:50:42;10.82;;;6.43;;
72785;SDS011;60902;53.876;10.674;2024-03-07T00:50:53;11.02;;;6.45;;
72785;SDS011;60902;53.876;10.674;2024-03-07T00:51:04;11.00;;;6.50;;
72785;SDS011;60902;53.876;10.674;2024-03-07T00:51:15;11.32;;;6.32;;
72785;SDS011;60902;53.876;10.674;2024-03-07T00:51:26;11.52;;;6.20;;
72785;SDS011;60902;53.876;10.674;2024-03-07T00:51:37;11.43;;;5.90;;
72785;SDS011;60902;53.876;10.674;2024-03-07T00:51:49;12.90;;;6.15;;
72785;SDS011;60902;53.876;10.674;2024-03-07T00:52:00;12.63;;;6.35;;
72785;SDS011;60902;53.876;10.674;2024-03-07T00:52:11;11.63;;;6.63;;
72785;SDS011;60902;53.876;10.674;2024-03-07T00:52:22;11.23;;;6.85;;
72785;SDS011;60902;53.876;10.674;2024-03-07T00:52:33;11.88;;;6.82;;
72785;SDS011;60902;53.876;10.674;2024-03-07T00:52:44;12.88;;;7.18;;
72785;SDS011;60902;53.876;10.674;2024-03-07T00:52:56;12.70;;;7.20;;
72785;SDS011;60902;53.876;10.674;2024-03-07T00:53:06;12.00;;;7.22;;
72785;SDS011;60902;53.876;10.674;2024-03-07T00:53:17;10.63;;;6.80;;
72785;SDS011;60902;53.876;10.674;2024-03-07T00:53:28;10.27;;;6.57;;
72785;SDS011;60902;53.876;10.674;2024-03-07T00:53:39;11.65;;;6.60;;
72785;SDS011;60902;53.876;10.674;2024-03-07T00:53:51;12.10;;;6.72;;
72785;SDS011;60902;53.876;10.674;2024-03-07T00:54:02;11.30;;;6.88;;
72785;SDS011;60902;53.876;10.674;2024-03-07T00:54:13;11.37;;;6.80;;
72785;SDS011;60902;53.876;10.674;2024-03-07T00:54:24;10.95;;;6.57;;
72785;SDS011;60902;53.876;10.674;2024-03-07T00:54:35;11.33;;;6.40;;
72785;SDS011;60902;53.876;10.674;2024-03-07T00:54:46;11.10;;;6.55;;
72785;SDS011;60902;53.876;10.674;2024-03-07T00:54:57;11.15;;;6.38;;
72785;SDS011;60902;53.876;10.674;2024-03-07T00:55:08;10.48;;;6.22;;
72785;SDS011;60902;53.876;10.674;2024-03-07T00:55:19;10.27;;;6.10;;
72785;SDS011;60902;53.876;10.674;2024-03-07T00:55:30;11.15;;;6.45;;
72785;SDS011;60902;53.876;10.674;2024-03-07T00:55:42;11.30;;;6.55;;
72785;SDS011;60902;53.876;10.674;2024-03-07T00:55:54;11.95;;;6.70;;
72785;SDS011;60902;53.876;10.674;2024-03-07T00:56:05;11.18;;;6.68;;
72785;SDS011;60902;53.876;10.674;2024-03-07T00:56:16;10.80;;;6.53;;
72785;SDS011;60902;53.876;10.674;2024-03-07T00:56:27;10.40;;;6.13;;
72785;SDS011;60902;53.876;10.674;2024-03-07T00:56:38;11.27;;;6.22;;
72785;SDS011;60902;53.876;10.674;2024-03-07T00:56:49;11.25;;;6.28;;
72785;SDS011;60902;53.876;10.674;2024-03-07T00:57:00;12.00;;;6.13;;
72785;SDS011;60902;53.876;10.674;2024-03-07T00:57:11;12.05;;;6.18;;
72785;SDS011;60902;53.876;10.674;2024-03-07T00:57:24;11.73;;;6.18;;
72785;SDS011;60902;53.876;10.674;2024-03-07T00:57:35;12.02;;;6.47;;
72785;SDS011;60902;53.876;10.674;2024-03-07T00:57:48;12.07;;;6.47;;
72785;SDS011;60902;53.876;10.674;2024-03-07T00:57:59;11.77;;;6.20;;
72785;SDS011;60902;53.876;10.674;2024-03-07T00:58:10;10.63;;;5.95;;
72785;SDS011;60902;53.876;10.674;2024-03-07T00:58:22;11.32;;;6.38;;
72785;SDS011;60902;53.876;10.674;2024-03-07T00:58:33;11.25;;;6.45;;
72785;SDS011;60902;53.876;10.674;2024-03-07T00:58:45;11.27;;;6.40;;
72785;SDS011;60902;53.876;10.674;2024-03-07T00:58:56;13.23;;;6.50;;
72785;SDS011;60902;53.876;10.674;2024-03-07T00:59:07;13.30;;;6.60;;
72785;SDS011;60902;53.876;10.674;2024-03-07T00:59:17;12.90;;;6.75;;
72785;SDS011;60902;53.876;10.674;2024-03-07T00:59:29;11.40;;;6.30;;
72785;SDS011;60902;53.876;10.674;2024-03-07T00:59:41;11.95;;;6.15;;
72785;SDS011;60902;53.876;10.674;2024-03-07T00:59:52;11.60;;;5.93;;
72785;SDS011;60902;53.876;10.674;2024-03-07T01:00:03;12.07;;;6.20;;
72785;SDS011;60902;53.876;10.674;2024-03-07T01:00:15;11.95;;;6.10;;
72785;SDS011;60902;53.876;10.674;2024-03-07T01:00:31;11.27;;;6.68;;
72785;SDS011;60902;53.876;10.674;2024-03-07T01:00:43;11.10;;;6.68;;
72785;SDS011;60902;53.876;10.674;2024-03-07T01:00:54;10.35;;;6.28;;
72785;SDS011;60902;53.876;10.674;2024-03-07T01:01:04;10.68;;;6.35;;
72785;SDS011;60902;53.876;10.674;2024-03-07T01:01:15;10.73;;;6.60;;
72785;SDS011;60902;53.876;10.674;2024-03-07T01:01:27;11.45;;;6.90;;
72785;SDS011;60902;53.876;10.674;2024-03-07T01:01:39;12.15;;;7.10;;
72785;SDS011;60902;53.876;10.674;2024-03-07T01:01:51;12.57;;;6.75;;
72785;SDS011;60902;53.876;10.674;2024-03-07T01:02:02;11.73;;;6.50;;
72785;SDS011;60902;53.876;10.674;2024-03-07T01:02:14;11.02;;;6.25;;
72785;SDS011;60902;53.876;10.674;2024-03-07T01:02:27;11.38;;;6.22;;
72785;SDS011;60902;53.876;10.674;2024-03-07T01:02:37;11.25;;;6.18;;
72785;SDS011;60902;53.876;10.674;2024-03-07T01:02:53;11.20;;;6.47;;
72785;SDS011;60902;53.876;10.674;2024-03-07T01:03:04;10.98;;;6.45;;
72785;SDS011;60902;53.876;10.674;2024-03-07T01:03:17;11.63;;;6.72;;
72785;SDS011;60902;53.876;10.674;2024-03-07T01:03:28;12.05;;;6.68;;
72785;SDS011;60902;53.876;10.674;2024-03-07T01:03:39;13.10;;;6.70;;
72785;SDS011;60902;53.876;10.674;2024-03-07T01:03:50;12.65;;;6.60;;
72785;SDS011;60902;53.876;10.674;2024-03-07T01:04:01;13.27;;;6.85;;
72785;SDS011;60902;53.876;10.674;2024-03-07T01:04:13;12.10;;;6.60;;
72785;SDS011;60902;53.876;10.674;2024-03-07T01:04:24;11.47;;;6.17;;
72785;SDS011;60902;53.876;10.674;2024-03-07T01:04:36;11.57;;;6.55;;
72785;SDS011;60902;53.876;10.674;2024-03-07T01:04:47;11.98;;;6.72;;
72785;SDS011;60902;53.876;10.674;2024-03-07T01:04:58;11.52;;;6.70;;
72785;SDS011;60902;53.876;10.674;2024-03-07T01:05:09;11.40;;;6.43;;
72785;SDS011;60902;53.876;10.674;2024-03-07T01:05:23;12.13;;;6.60;;
72785;SDS011;60902;53.876;10.674;2024-03-07T01:05:34;11.80;;;6.60;;
72785;SDS011;60902;53.876;10.674;2024-03-07T01:05:45;11.13;;;6.55;;
72785;SDS011;60902;53.876;10.674;2024-03-07T01:05:56;11.30;;;6.47;;
72785;SDS011;60902;53.876;10.674;2024-03-07T01:06:07;11.30;;;6.38;;
72785;SDS011;60902;53.876;10.674;2024-03-07T01:06:19;10.73;;;6.30;;
72785;SDS011;60902;53.876;10.674;2024-03-07T01:06:30;11.30;;;6.55;;
72785;SDS011;60902;53.876;10.674;2024-03-07T01:06:42;11.68;;;6.65;;
72785;SDS011;60902;53.876;10.674;2024-03-07T01:06:54;12.43;;;6.80;;
72785;SDS011;60902;53.876;10.674;2024-03-07T01:07:05;12.15;;;6.60;;